Time;durP1;ratioP1;P1;durP2;ratioP2;P2;SDS_P1;SDS_P2;PMS_P1;PMS_P2;Temp;Humidity;BMP_temperature;BMP_pressure;BME280_temperature;BME280_humidity;BME280_pressure;Samples;Min_cycle;Max_cycle;Signal;HPM_P1;HPM_P2
2021/04/17 00:01:55;;;;;;;10.23;7.35;;;;;;;9.02;70.21;99952.03;5051486;28;20396;-37
2021/04/17 00:04:21;;;;;;;11.23;7.30;;;;;;;9.09;69.78;99952.13;5051546;28;20325;-39
2021/04/17 00:06:47;;;;;;;9.68;7.28;;;;;;;8.88;70.81;99947.63;5051344;28;20534;-38
2021/04/17 00:09:17;;;;;;;10.50;7.40;;;;;;;9.11;70.50;99942.94;5049999;28;20029;-38
2021/04/17 00:11:43;;;;;;;9.63;6.70;;;;;;;9.01;68.67;99947.75;5051231;28;20504;-38
2021/04/17 00:14:12;;;;;;;10.93;7.13;;;;;;;9.15;68.92;99946.06;5051474;28;20021;-38
2021/04/17 00:16:37;;;;;;;12.25;7.40;;;;;;;9.06;70.47;99940.03;5051016;28;20058;-37
2021/04/17 00:19:03;;;;;;;12.40;7.60;;;;;;;9.00;70.16;99944.28;5051179;28;20021;-37
2021/04/17 00:21:29;;;;;;;10.57;8.07;;;;;;;9.03;70.53;99942.25;5050929;28;20108;-37
2021/04/17 00:23:54;;;;;;;10.90;7.75;;;;;;;9.13;69.81;99926.84;5051082;28;20112;-38
2021/04/17 00:26:20;;;;;;;10.82;8.05;;;;;;;9.11;71.18;99924.38;5050823;28;20032;-38
2021/04/17 00:28:45;;;;;;;15.23;9.45;;;;;;;9.20;70.89;99919.75;5050843;28;20412;-38
2021/04/17 00:31:11;;;;;;;14.60;9.00;;;;;;;8.95;72.61;99932.59;5050741;28;20098;-39
2021/04/17 00:33:36;;;;;;;12.85;8.85;;;;;;;8.91;72.94;99928.63;5051135;28;20055;-38
2021/04/17 00:36:02;;;;;;;12.45;9.00;;;;;;;9.04;72.58;99912.03;5050637;28;20479;-38
2021/04/17 00:38:28;;;;;;;15.07;9.55;;;;;;;9.10;72.95;99916.59;5050174;28;20048;-38
2021/04/17 00:40:55;;;;;;;14.95;9.80;;;;;;;8.97;73.23;99927.91;5050673;28;20033;-38
2021/04/17 00:43:20;;;;;;;13.68;8.88;;;;;;;9.08;73.45;99924.75;5050647;28;20032;-38
2021/04/17 00:45:46;;;;;;;16.52;9.98;;;;;;;9.14;73.41;99926.66;5050540;28;20029;-38
2021/04/17 00:48:13;;;;;;;13.93;8.95;;;;;;;9.02;72.70;99927.34;5050480;28;20385;-38
2021/04/17 00:50:38;;;;;;;11.60;8.55;;;;;;;9.05;72.14;99932.28;5050528;28;20048;-38
2021/04/17 00:53:04;;;;;;;12.07;8.65;;;;;;;9.04;73.30;99927.97;5050433;28;20398;-38
2021/04/17 00:55:29;;;;;;;11.23;8.52;;;;;;;9.14;73.46;99933.81;5032405;28;20245;-37
2021/04/17 00:57:55;;;;;;;13.40;8.30;;;;;;;9.06;71.12;99939.22;5050276;28;20021;-37
2021/04/17 01:00:20;;;;;;;14.65;8.93;;;;;;;9.08;71.92;99932.72;5048512;28;20036;-38
2021/04/17 01:02:58;;;;;;;12.35;8.75;;;;;;;9.03;72.95;99936.94;5050333;28;20035;-38
2021/04/17 01:05:24;;;;;;;14.75;8.95;;;;;;;9.15;71.44;99928.28;5048822;28;20390;-38
2021/04/17 01:07:50;;;;;;;12.95;9.27;;;;;;;8.86;73.48;99923.09;5048780;28;20476;-39
2021/04/17 01:10:25;;;;;;;14.20;9.20;;;;;;;9.15;72.59;99911.53;5048713;28;20049;-38
2021/04/17 01:12:51;;;;;;;11.25;8.88;;;;;;;9.09;72.64;99913.13;5049007;28;20025;-38
2021/04/17 01:15:17;;;;;;;14.20;9.18;;;;;;;9.16;72.28;99907.88;5049845;28;20025;-38
2021/04/17 01:17:48;;;;;;;12.73;9.35;;;;;;;8.90;72.88;99911.91;5050018;28;20029;-38
2021/04/17 01:20:30;;;;;;;13.50;9.43;;;;;;;8.86;73.31;99905.34;5048697;28;20044;-38
2021/04/17 01:23:07;;;;;;;14.07;9.65;;;;;;;8.94;74.00;99907.03;5050085;28;20070;-38
2021/04/17 01:25:55;;;;;;;16.10;9.73;;;;;;;8.97;73.53;99904.03;5050064;28;20074;-38
2021/04/17 01:28:21;;;;;;;14.63;10.00;;;;;;;8.94;73.49;99913.16;5049886;28;20112;-38
2021/04/17 01:30:48;;;;;;;15.40;9.45;;;;;;;8.94;73.62;99915.00;5031910;28;20025;-38
2021/04/17 01:33:14;;;;;;;11.65;8.82;;;;;;;8.82;73.43;99914.69;5048708;28;20032;-39
2021/04/17 01:35:39;;;;;;;15.73;9.65;;;;;;;8.89;74.03;99904.13;5031803;28;20025;-37
2021/04/17 01:38:20;;;;;;;14.02;9.65;;;;;;;9.03;74.34;99897.13;5049651;28;20644;-38
2021/04/17 01:40:48;;;;;;;14.50;9.50;;;;;;;9.06;73.50;99894.09;5048358;28;20070;-38
2021/04/17 01:43:14;;;;;;;17.42;10.52;;;;;;;9.08;74.05;99897.38;5049597;28;20066;-39
2021/04/17 01:45:39;;;;;;;12.13;9.27;;;;;;;8.85;74.38;99900.19;5031906;28;20024;-39
2021/04/17 01:48:05;;;;;;;12.45;9.00;;;;;;;8.86;73.64;99893.91;5030293;28;20029;-39
2021/04/17 01:50:31;;;;;;;11.23;8.82;;;;;;;9.02;71.07;99882.22;5031836;28;20373;-38
2021/04/17 01:52:57;;;;;;;13.93;9.88;;;;;;;9.08;71.98;99886.75;5048297;28;20028;-39
2021/04/17 01:55:23;;;;;;;13.30;9.02;;;;;;;9.04;73.16;99907.53;5048376;28;20025;-38
2021/04/17 01:57:49;;;;;;;12.75;9.43;;;;;;;8.99;73.66;99904.66;5031490;28;20417;-38
2021/04/17 02:00:14;;;;;;;11.98;9.13;;;;;;;8.97;73.41;99906.69;5031614;28;20083;-39
2021/04/17 02:02:40;;;;;;;12.75;9.07;;;;;;;8.90;73.25;99924.34;5049870;28;20025;-38
2021/04/17 02:05:06;;;;;;;15.30;9.70;;;;;;;8.83;72.75;99923.47;5049394;28;20024;-38
2021/04/17 02:07:32;;;;;;;12.13;9.00;;;;;;;8.73;73.84;99913.97;5049382;28;20213;-38
2021/04/17 02:09:57;;;;;;;14.82;9.90;;;;;;;8.77;73.95;99922.38;5049309;28;20049;-39
2021/04/17 02:12:22;;;;;;;15.50;9.90;;;;;;;8.61;74.11;99915.47;5050203;28;20059;-39
2021/04/17 02:14:48;;;;;;;16.23;10.50;;;;;;;8.78;73.62;99913.41;5053192;28;20025;-39
2021/04/17 02:17:27;;;;;;;16.10;10.18;;;;;;;8.78;74.72;99910.75;5051939;28;20032;-39
2021/04/17 02:19:57;;;;;;;17.02;10.07;;;;;;;8.88;73.29;99903.31;5053402;28;20459;-39
2021/04/17 02:22:23;;;;;;;14.18;10.40;;;;;;;8.96;72.96;99899.72;5051966;28;20035;-40
2021/04/17 02:24:48;;;;;;;14.27;10.27;;;;;;;8.88;72.88;99897.19;5053200;28;20485;-38
2021/04/17 02:27:14;;;;;;;17.92;10.90;;;;;;;8.70;74.60;99906.41;5053016;28;20031;-38
2021/04/17 02:29:39;;;;;;;16.10;11.23;;;;;;;8.61;74.84;99892.41;5053228;28;20032;-38
2021/04/17 02:32:09;;;;;;;14.98;11.00;;;;;;;8.65;74.33;99886.75;5053307;28;20039;-38
2021/04/17 02:34:34;;;;;;;15.75;10.88;;;;;;;8.84;74.64;99887.97;5051787;28;20044;-39
2021/04/17 02:37:00;;;;;;;15.70;11.40;;;;;;;8.58;74.70;99884.81;5052978;28;20413;-39
2021/04/17 02:39:25;;;;;;;18.13;12.38;;;;;;;8.61;75.21;99880.97;5052951;28;20021;-38
2021/04/17 02:41:50;;;;;;;20.50;11.65;;;;;;;8.86;73.79;99884.09;5052642;28;20169;-38
2021/04/17 02:44:16;;;;;;;18.20;12.98;;;;;;;8.78;74.74;99881.56;5052807;28;20044;-38
2021/04/17 02:46:41;;;;;;;17.48;12.93;;;;;;;8.68;75.80;99884.53;5052315;28;20013;-38
2021/04/17 02:49:07;;;;;;;19.98;12.88;;;;;;;8.67;75.26;99897.97;5052492;28;20025;-38
2021/04/17 02:51:32;;;;;;;17.63;12.38;;;;;;;8.71;75.38;99894.75;5052630;28;20025;-39
2021/04/17 02:53:57;;;;;;;17.92;12.45;;;;;;;8.85;73.47;99893.06;5052800;28;20422;-39
2021/04/17 02:56:23;;;;;;;19.35;12.82;;;;;;;8.68;74.17;99873.09;5051723;28;20032;-38
2021/04/17 02:58:48;;;;;;;19.67;12.88;;;;;;;8.86;74.47;99897.38;5052526;28;20025;-38
2021/04/17 03:01:14;;;;;;;19.63;12.68;;;;;;;8.80;75.55;99898.13;5052400;28;20021;-38
2021/04/17 03:03:39;;;;;;;18.92;12.30;;;;;;;8.84;74.94;99898.56;5052282;28;20429;-38
2021/04/17 03:06:05;;;;;;;19.55;13.27;;;;;;;8.83;75.53;99892.44;5052330;28;20068;-39
2021/04/17 03:08:31;;;;;;;21.42;13.38;;;;;;;8.79;75.40;99893.81;5052133;28;20481;-39
2021/04/17 03:10:56;;;;;;;20.63;13.68;;;;;;;8.77;76.67;99898.50;5052028;28;20049;-39
2021/04/17 03:13:22;;;;;;;21.30;14.02;;;;;;;8.78;76.24;99894.84;5052111;28;20051;-39
2021/04/17 03:15:47;;;;;;;20.85;12.75;;;;;;;8.89;74.81;99888.19;5051789;28;20024;-39
2021/04/17 03:18:13;;;;;;;18.50;13.35;;;;;;;8.75;75.71;99871.31;5052069;28;20091;-39
2021/04/17 03:20:38;;;;;;;19.75;14.02;;;;;;;8.83;75.87;99892.44;5051900;28;20051;-39
2021/04/17 03:23:04;;;;;;;21.77;13.93;;;;;;;8.96;75.46;99899.72;5051435;28;20082;-39
2021/04/17 03:25:29;;;;;;;23.48;14.50;;;;;;;8.81;75.94;99897.09;5051688;28;20086;-39
2021/04/17 03:27:55;;;;;;;19.27;13.40;;;;;;;8.58;76.30;99903.38;5052004;28;20658;-39
2021/04/17 03:30:27;;;;;;;19.20;13.02;;;;;;;8.72;75.50;99901.72;5051697;28;20029;-39
2021/04/17 03:32:52;;;;;;;19.98;13.82;;;;;;;8.64;75.65;99893.84;5051722;28;20024;-40
2021/04/17 03:35:18;;;;;;;21.55;14.13;;;;;;;8.78;75.43;99900.16;5050251;28;20083;-39
2021/04/17 03:37:43;;;;;;;21.17;14.02;;;;;;;8.44;76.59;99895.47;5051806;28;20025;-39
2021/04/17 03:40:09;;;;;;;23.13;14.27;;;;;;;8.67;76.06;99897.97;5051455;28;20028;-39
2021/04/17 03:42:35;;;;;;;21.52;13.90;;;;;;;8.55;77.50;99895.81;5051729;28;20060;-38
2021/04/17 03:45:00;;;;;;;20.25;13.10;;;;;;;8.52;76.53;99871.50;5051523;28;20453;-38
2021/04/17 03:47:26;;;;;;;20.33;13.25;;;;;;;8.63;76.55;99902.84;5051648;28;20033;-39
2021/04/17 03:49:51;;;;;;;22.27;13.40;;;;;;;8.51;76.22;99902.50;5051752;28;20083;-38
2021/04/17 03:52:17;;;;;;;16.80;12.13;;;;;;;8.68;75.37;99897.81;5051503;28;20112;-41
2021/04/17 03:54:42;;;;;;;18.55;12.38;;;;;;;8.59;76.14;99901.56;5051425;28;20506;-39
2021/04/17 03:57:08;;;;;;;18.90;12.43;;;;;;;8.52;77.07;99890.88;5051257;28;20463;-39
2021/04/17 03:59:34;;;;;;;23.02;12.93;;;;;;;8.58;76.59;99894.59;5051239;28;20028;-40
2021/04/17 04:01:59;;;;;;;37.90;23.25;;;;;;;8.50;77.42;99892.06;5051320;28;20029;-39
2021/04/17 04:04:25;;;;;;;47.33;27.73;;;;;;;8.65;77.13;99892.03;5051110;28;20032;-38
2021/04/17 04:06:50;;;;;;;75.63;38.58;;;;;;;8.59;76.34;99897.09;5051496;28;20013;-40
2021/04/17 04:09:16;;;;;;;21.95;13.88;;;;;;;8.41;77.02;99893.97;5051002;28;20035;-40
2021/04/17 04:11:41;;;;;;;18.02;12.18;;;;;;;8.29;76.55;99892.81;5049762;28;20508;-40
2021/04/17 04:14:07;;;;;;;19.60;12.18;;;;;;;8.29;77.07;99898.13;5049837;28;20346;-40
2021/04/17 04:16:32;;;;;;;21.20;12.60;;;;;;;8.37;77.37;99908.59;5050772;28;20140;-38
2021/04/17 04:18:57;;;;;;;18.17;12.45;;;;;;;8.59;75.54;99905.03;5050961;28;20029;-39
2021/04/17 04:21:23;;;;;;;17.63;12.82;;;;;;;8.31;77.64;99891.59;5051080;28;20028;-38
2021/04/17 04:23:48;;;;;;;17.70;12.25;;;;;;;8.46;76.73;99886.31;5051081;28;20090;-39
2021/04/17 04:26:14;;;;;;;20.30;12.63;;;;;;;8.59;76.02;99886.47;5051001;28;20028;-39
2021/04/17 04:28:39;;;;;;;17.83;12.45;;;;;;;8.39;76.12;99899.44;5051057;28;20025;-39
2021/04/17 04:31:05;;;;;;;19.90;12.90;;;;;;;8.33;77.22;99886.13;5050919;28;20361;-38
2021/04/17 04:33:30;;;;;;;18.80;11.93;;;;;;;8.25;77.23;99886.25;5050935;28;20028;-38
2021/04/17 04:35:56;;;;;;;18.88;11.95;;;;;;;8.37;77.26;99884.75;5048915;28;20037;-38
2021/04/17 04:38:21;;;;;;;19.10;13.18;;;;;;;8.46;77.59;99886.31;5050537;28;20543;-39
2021/04/17 04:40:46;;;;;;;20.58;13.40;;;;;;;8.35;77.82;99889.41;5050780;28;20025;-38
2021/04/17 04:43:12;;;;;;;19.15;12.75;;;;;;;8.53;76.91;99889.03;5050566;28;20511;-39
2021/04/17 04:45:37;;;;;;;19.35;13.88;;;;;;;8.43;77.42;99891.97;5050433;28;20369;-39
2021/04/17 04:48:04;;;;;;;20.77;13.68;;;;;;;8.51;77.72;99891.91;5049053;28;20025;-38
2021/04/17 04:50:29;;;;;;;23.70;14.50;;;;;;;8.52;77.42;99887.41;5050419;28;20477;-39
2021/04/17 04:52:55;;;;;;;79.78;38.78;;;;;;;8.33;78.06;99888.78;5050412;28;20024;-39
2021/04/17 04:55:20;;;;;;;78.78;39.83;;;;;;;8.19;78.97;99891.25;5050378;28;20347;-39
2021/04/17 04:57:46;;;;;;;25.10;14.93;;;;;;;8.06;79.11;99898.22;5050393;28;20021;-38
2021/04/17 05:00:12;;;;;;;24.25;14.07;;;;;;;8.24;79.19;99906.59;5050470;28;20025;-38
2021/04/17 05:02:37;;;;;;;22.38;14.77;;;;;;;8.11;79.25;99906.44;5048716;28;20399;-38
2021/04/17 05:05:04;;;;;;;24.33;15.75;;;;;;;8.14;79.47;99908.72;5048566;28;20029;-39
2021/04/17 05:07:29;;;;;;;24.13;15.23;;;;;;;8.17;79.73;99901.22;5050082;28;20056;-38
2021/04/17 05:09:54;;;;;;;23.52;15.05;;;;;;;8.31;79.48;99906.69;5049618;28;20106;-39
2021/04/17 05:12:20;;;;;;;24.23;15.43;;;;;;;8.28;79.02;99905.25;5050382;28;20017;-39
2021/04/17 05:14:45;;;;;;;28.85;17.05;;;;;;;8.14;79.59;99917.50;5050035;28;20096;-39
2021/04/17 05:17:11;;;;;;;28.05;17.55;;;;;;;7.93;80.31;99907.63;5047574;28;20064;-38
2021/04/17 05:19:39;;;;;;;27.77;17.63;;;;;;;8.26;79.80;99903.78;5049930;28;20017;-38
2021/04/17 05:22:05;;;;;;;28.33;17.33;;;;;;;8.06;79.99;99909.63;5040325;28;20107;-40
2021/04/17 05:24:30;;;;;;;27.15;17.90;;;;;;;8.15;79.77;99918.34;5049263;28;20436;-39
2021/04/17 05:26:56;;;;;;;29.50;18.80;;;;;;;8.08;80.18;99912.94;5048551;28;20058;-38
2021/04/17 05:29:21;;;;;;;29.75;17.75;;;;;;;7.94;80.05;99909.28;5049952;28;20025;-39
2021/04/17 05:31:47;;;;;;;29.02;18.65;;;;;;;8.14;81.22;99906.88;5049668;28;20441;-50
2021/04/17 05:34:12;;;;;;;31.02;18.20;;;;;;;8.07;80.50;99905.97;5049337;28;20033;-51
2021/04/17 05:36:38;;;;;;;30.73;17.77;;;;;;;8.05;80.53;99905.34;5049440;28;20017;-48
2021/04/17 05:39:04;;;;;;;30.52;18.17;;;;;;;7.87;81.68;99912.84;5049829;28;20044;-51
2021/04/17 05:41:29;;;;;;;30.85;18.50;;;;;;;8.02;81.03;99909.19;5049317;28;20028;-48
2021/04/17 05:43:55;;;;;;;32.58;19.25;;;;;;;8.08;80.16;99907.63;5049571;28;20374;-48
2021/04/17 05:46:20;;;;;;;31.23;18.73;;;;;;;7.90;81.18;99899.22;5049471;28;20497;-50
2021/04/17 05:48:46;;;;;;;29.92;18.63;;;;;;;7.89;80.64;99895.75;5047971;28;20089;-50
2021/04/17 05:51:11;;;;;;;29.90;18.52;;;;;;;7.92;80.70;99895.38;5049594;28;20032;-47
2021/04/17 05:53:37;;;;;;;32.17;19.90;;;;;;;8.13;80.42;99896.47;5049509;28;20377;-50
2021/04/17 05:56:02;;;;;;;29.55;17.65;;;;;;;7.81;81.27;99894.00;5049494;28;20044;-52
2021/04/17 05:58:28;;;;;;;32.25;19.27;;;;;;;7.90;82.02;99894.75;5049533;28;20032;-51
2021/04/17 06:00:53;;;;;;;32.90;19.85;;;;;;;7.88;82.17;99896.75;5049585;28;20083;-50
2021/04/17 06:03:19;;;;;;;28.55;18.00;;;;;;;7.89;81.86;99884.31;5049175;28;20029;-49
2021/04/17 06:05:44;;;;;;;30.13;18.27;;;;;;;7.99;81.89;99882.22;5049097;28;20025;-50
2021/04/17 06:08:09;;;;;;;31.02;17.85;;;;;;;8.01;80.79;99880.19;5049329;28;20032;-49
2021/04/17 06:10:35;;;;;;;26.88;17.40;;;;;;;7.99;80.53;99874.25;5048697;28;20053;-49
2021/04/17 06:13:00;;;;;;;28.27;18.13;;;;;;;7.86;81.20;99888.16;5046641;28;20035;-50
2021/04/17 06:15:26;;;;;;;29.02;17.42;;;;;;;7.83;80.98;99885.88;5048856;28;20580;-38
2021/04/17 06:17:51;;;;;;;28.73;18.30;;;;;;;8.22;80.00;99887.41;5048997;28;20021;-38
2021/04/17 06:20:17;;;;;;;29.27;18.38;;;;;;;7.85;80.85;99869.81;5048825;28;20017;-38
2021/04/17 06:22:42;;;;;;;31.45;18.20;;;;;;;7.86;82.00;99874.91;5047834;28;20017;-39
2021/04/17 06:25:09;;;;;;;29.20;18.63;;;;;;;8.08;80.42;99882.97;5049109;28;20389;-38
2021/04/17 06:27:34;;;;;;;28.85;18.08;;;;;;;7.81;81.42;99877.28;5048954;28;20242;-38
2021/04/17 06:30:01;;;;;;;29.98;17.77;;;;;;;7.85;81.10;99878.56;5049029;28;20033;-38
2021/04/17 06:32:26;;;;;;;29.83;18.00;;;;;;;7.80;82.01;99873.78;5049205;28;20477;-39
2021/04/17 06:34:51;;;;;;;30.20;17.02;;;;;;;7.88;81.25;99869.41;5048799;28;20177;-38
2021/04/17 06:37:17;;;;;;;24.90;14.88;;;;;;;7.70;80.86;99877.75;5049387;28;20021;-39
2021/04/17 06:39:43;;;;;;;27.17;17.65;;;;;;;7.64;81.49;99884.59;5049227;28;20538;-38
2021/04/17 06:42:09;;;;;;;25.58;16.63;;;;;;;7.24;82.15;99873.34;5047470;28;20059;-39
2021/04/17 06:44:34;;;;;;;29.77;18.38;;;;;;;7.54;81.83;99884.00;5049216;28;20024;-39
2021/04/17 06:47:00;;;;;;;30.08;17.85;;;;;;;7.52;82.33;99872.75;5043886;28;20009;-39
2021/04/17 06:49:26;;;;;;;27.63;16.98;;;;;;;7.60;81.90;99873.53;5029222;28;20373;-39
2021/04/17 06:51:52;;;;;;;26.98;16.70;;;;;;;7.52;82.25;99880.72;5029143;28;20025;-38
2021/04/17 06:54:19;;;;;;;29.50;16.90;;;;;;;7.63;81.74;99883.75;5034293;28;20032;-39
2021/04/17 06:56:44;;;;;;;28.38;17.55;;;;;;;7.67;82.30;99889.50;5039440;28;20048;-40
2021/04/17 06:59:10;;;;;;;27.00;17.33;;;;;;;7.74;81.63;99890.44;5040153;28;20045;-40
2021/04/17 07:01:38;;;;;;;30.20;17.48;;;;;;;7.88;81.50;99893.28;5045663;28;20021;-39
2021/04/17 07:04:04;;;;;;;29.73;18.13;;;;;;;7.77;81.94;99890.06;5052610;28;20028;-39
2021/04/17 07:06:30;;;;;;;28.70;17.48;;;;;;;7.79;81.10;99882.75;5052981;28;20103;-38
2021/04/17 07:08:55;;;;;;;30.85;19.63;;;;;;;7.55;82.79;99885.66;5052736;28;20475;-38
2021/04/17 07:11:20;;;;;;;30.25;18.23;;;;;;;7.74;81.70;99895.72;5041251;28;20049;-39
2021/04/17 07:14:11;;;;;;;27.35;17.67;;;;;;;7.88;81.93;99890.63;5034067;28;20040;-39
2021/04/17 07:16:56;;;;;;;29.92;18.30;;;;;;;8.10;81.58;99891.53;5032376;28;20099;-39
2021/04/17 07:19:22;;;;;;;33.40;19.45;;;;;;;8.08;82.27;99889.06;5032172;28;20102;-38
2021/04/17 07:21:48;;;;;;;30.40;18.05;;;;;;;7.89;82.04;99886.97;5032278;28;20534;-39
2021/04/17 07:24:26;;;;;;;32.78;19.38;;;;;;;8.08;81.72;99889.06;5032091;28;20029;-40
2021/04/17 07:26:52;;;;;;;30.83;18.13;;;;;;;8.20;80.54;99892.88;5031836;28;20034;-41
2021/04/17 07:29:18;;;;;;;31.35;18.65;;;;;;;8.10;81.02;99889.72;5031227;28;20064;-40
2021/04/17 07:31:51;;;;;;;35.38;18.92;;;;;;;8.08;81.92;99888.25;5032237;28;20053;-40
2021/04/17 07:34:26;;;;;;;29.60;18.55;;;;;;;8.22;80.94;99880.28;5032009;28;20130;-39
2021/04/17 07:36:56;;;;;;;32.50;19.30;;;;;;;8.28;81.25;99876.09;5031803;28;20034;-39
2021/04/17 07:39:36;;;;;;;;;;;;;;;8.13;82.20;99876.09;5032541;28;20100;-39
2021/04/17 07:48:44;;;;;;;32.22;19.48;;;;;;;8.34;80.87;99866.53;5050038;28;20121;-39
2021/04/17 07:51:10;;;;;;;35.58;21.35;;;;;;;8.37;81.17;99871.47;5049026;28;20025;-38
2021/04/17 07:53:38;;;;;;;35.92;22.17;;;;;;;8.50;80.50;99870.84;5050506;28;20032;-38
2021/04/17 07:56:30;;;;;;;33.20;19.77;;;;;;;8.41;80.31;99859.50;5050851;28;20051;-37
2021/04/17 07:59:00;;;;;;;31.30;19.23;;;;;;;8.27;80.13;99857.72;5029571;28;20029;-38
2021/04/17 08:01:27;;;;;;;33.95;20.63;;;;;;;8.60;80.46;99864.25;5050910;28;20051;-38
2021/04/17 08:03:55;;;;;;;33.45;19.48;;;;;;;8.91;79.96;99867.59;5050913;28;20077;-38
2021/04/17 08:06:21;;;;;;;33.38;19.58;;;;;;;8.95;79.30;99868.88;5051555;28;20033;-38
2021/04/17 08:08:46;;;;;;;32.70;19.20;;;;;;;9.04;79.07;99870.38;5050126;28;20041;-38
2021/04/17 08:11:12;;;;;;;29.08;18.30;;;;;;;9.14;78.35;99862.13;5047525;28;20515;-37
2021/04/17 08:13:39;;;;;;;31.02;19.02;;;;;;;9.09;77.61;99861.84;5049841;28;20040;-39
2021/04/17 08:16:06;;;;;;;27.55;17.50;;;;;;;9.38;76.77;99855.56;5051286;28;20078;-38
2021/04/17 08:18:32;;;;;;;28.58;18.05;;;;;;;9.37;77.23;99852.09;5046066;28;20040;-38
2021/04/17 08:20:59;;;;;;;31.65;20.33;;;;;;;9.47;75.46;99845.63;5036084;28;20029;-38
2021/04/17 08:23:24;;;;;;;28.63;17.90;;;;;;;8.87;77.63;99830.03;5036833;28;20028;-39
2021/04/17 08:25:53;;;;;;;27.70;17.75;;;;;;;9.23;76.92;99831.72;5030219;28;20029;-38
2021/04/17 08:28:20;;;;;;;27.88;18.08;;;;;;;9.42;75.45;99832.09;5030430;28;20021;-38
2021/04/17 08:30:46;;;;;;;28.85;18.20;;;;;;;8.63;78.01;99830.41;5029890;28;20035;-39
2021/04/17 08:33:13;;;;;;;25.20;17.20;;;;;;;8.45;78.47;99839.56;5031583;28;20029;-39
2021/04/17 08:35:39;;;;;;;25.85;16.92;;;;;;;8.56;78.79;99830.31;5039363;28;20074;-38
2021/04/17 08:38:08;;;;;;;25.40;16.23;;;;;;;8.32;79.37;99823.47;5050438;28;20075;-39
2021/04/17 08:40:36;;;;;;;27.20;18.00;;;;;;;8.95;78.80;99832.53;5033396;28;20465;-38
2021/04/17 08:43:25;;;;;;;25.10;16.35;;;;;;;9.23;76.75;99817.66;5050884;28;20572;-38
2021/04/17 08:46:08;;;;;;;25.40;16.33;;;;;;;8.83;77.62;99822.63;5051125;28;20484;-39
2021/04/17 08:48:46;;;;;;;23.90;15.70;;;;;;;8.77;77.91;99826.84;5050846;28;20416;-39
2021/04/17 08:51:21;;;;;;;22.83;15.32;;;;;;;8.50;78.89;99823.13;5051202;28;20146;-39
2021/04/17 08:53:50;;;;;;;28.23;16.88;;;;;;;8.64;80.24;99819.56;5051298;28;20035;-38
2021/04/17 08:56:15;;;;;;;27.20;18.03;;;;;;;9.32;78.47;99812.00;5050823;28;20428;-39
2021/04/17 08:58:41;;;;;;;24.80;16.17;;;;;;;8.88;77.83;99821.03;5050982;28;20329;-38
2021/04/17 09:01:10;;;;;;;25.77;15.15;;;;;;;8.76;77.86;99814.59;5050993;28;20025;-38
2021/04/17 09:03:47;;;;;;;24.55;15.30;;;;;;;8.82;77.84;99808.53;5050706;28;20105;-38
2021/04/17 09:06:22;;;;;;;22.25;14.93;;;;;;;8.51;79.24;99817.63;5051227;28;20028;-39
2021/04/17 09:09:15;;;;;;;23.30;15.88;;;;;;;8.74;79.52;99812.13;5050827;28;20037;-38
2021/04/17 09:11:51;;;;;;;28.70;17.52;;;;;;;8.71;79.40;99799.25;5050565;28;20041;-39
2021/04/17 09:14:25;;;;;;;33.63;22.77;;;;;;;9.05;78.36;99800.34;5050863;28;20028;-39
2021/04/17 09:16:51;;;;;;;33.92;21.58;;;;;;;8.94;78.29;99790.25;5050569;28;20025;-38
2021/04/17 09:19:38;;;;;;;27.63;17.35;;;;;;;9.16;77.81;99786.56;5032492;28;20017;-39
2021/04/17 09:22:24;;;;;;;25.77;16.35;;;;;;;9.02;78.59;99797.25;5049596;28;20496;-39
2021/04/17 09:24:53;;;;;;;23.77;14.85;;;;;;;8.88;78.51;99794.50;5050357;28;20489;-38
2021/04/17 09:27:29;;;;;;;;;;;;;;;8.94;78.03;99785.75;5051010;28;20017;-38
2021/04/17 09:30:03;;;;;;;19.95;14.13;;;;;;;8.93;78.06;99785.94;5050350;28;19936;-38
2021/04/17 09:32:36;;;;;;;20.63;14.63;;;;;;;8.96;76.58;99785.56;5050346;28;20481;-38
2021/04/17 09:35:31;;;;;;;23.25;14.57;;;;;;;8.92;77.50;99766.56;5048468;28;20128;-38
2021/04/17 09:38:04;;;;;;;20.77;13.13;;;;;;;8.98;77.27;99757.00;5049872;28;20029;-38
2021/04/17 09:40:40;;;;;;;20.02;14.10;;;;;;;8.99;77.18;99759.47;5050128;28;20025;-38
2021/04/17 09:43:07;;;;;;;20.85;13.63;;;;;;;8.94;77.81;99756.56;5050060;28;20416;-38
2021/04/17 09:45:39;;;;;;;20.85;13.88;;;;;;;9.29;76.37;99745.16;5050302;28;20028;-39
2021/04/17 09:48:06;;;;;;;19.42;13.68;;;;;;;9.23;76.04;99756.56;5050309;28;20047;-38
2021/04/17 09:50:32;;;;;;;20.33;14.07;;;;;;;9.22;76.22;99755.75;5050306;28;20396;-39
2021/04/17 09:53:18;;;;;;;19.65;13.48;;;;;;;9.30;76.80;99736.19;5050221;28;20036;-38
2021/04/17 09:55:55;;;;;;;20.02;14.38;;;;;;;9.36;76.87;99738.06;5029892;28;20021;-39
2021/04/17 09:58:44;;;;;;;18.80;13.73;;;;;;;9.64;74.89;99740.66;5030329;28;20108;-37
2021/04/17 10:01:17;;;;;;;18.85;12.88;;;;;;;9.61;74.18;99735.72;5027285;28;20040;-38
2021/04/17 10:03:51;;;;;;;19.17;12.65;;;;;;;9.53;76.30;99735.91;5030827;28;20025;-39
2021/04/17 10:06:32;;;;;;;18.27;12.55;;;;;;;9.45;75.18;99731.56;5029970;28;20171;-39
2021/04/17 10:09:19;;;;;;;17.45;12.38;;;;;;;9.39;75.99;99722.56;5029824;28;20119;-38
2021/04/17 10:11:45;;;;;;;17.25;12.75;;;;;;;9.51;75.17;99725.47;5029882;28;20061;-38
2021/04/17 10:14:11;;;;;;;17.60;12.40;;;;;;;9.61;74.73;99730.41;5030135;28;20067;-38
2021/04/17 10:16:47;;;;;;;16.30;12.02;;;;;;;9.46;74.93;99732.41;5029948;28;20104;-37
2021/04/17 10:19:17;;;;;;;20.73;12.93;;;;;;;9.59;74.57;99729.81;5030239;28;20373;-37
2021/04/17 10:21:45;;;;;;;21.00;12.77;;;;;;;9.82;74.36;99731.34;5029827;28;20390;-39
2021/04/17 10:24:30;;;;;;;18.95;13.20;;;;;;;9.66;73.61;99724.53;5029602;28;20032;-38
2021/04/17 10:27:09;;;;;;;18.88;12.68;;;;;;;9.81;74.02;99727.88;5030124;28;20147;-37
2021/04/17 10:29:46;;;;;;;20.45;13.05;;;;;;;9.91;73.28;99722.97;5029491;28;20451;-38
2021/04/17 10:32:17;;;;;;;17.50;12.63;;;;;;;9.66;74.10;99720.03;5030222;28;20072;-38
2021/04/17 10:35:07;;;;;;;20.05;13.65;;;;;;;9.87;74.57;99715.63;5033748;28;20033;-38
2021/04/17 10:37:39;;;;;;;17.25;12.98;;;;;;;9.88;73.78;99714.59;5030694;28;20065;-39
2021/04/17 10:40:10;;;;;;;18.25;12.75;;;;;;;9.64;73.85;99713.28;5032922;28;20087;-37
2021/04/17 10:42:52;;;;;;;18.55;12.48;;;;;;;9.75;74.20;99710.88;5033255;28;20021;-38
2021/04/17 10:45:25;;;;;;;20.77;13.02;;;;;;;10.00;74.19;99702.38;5033077;28;20499;-39
2021/04/17 10:48:05;;;;;;;17.73;12.85;;;;;;;9.94;73.59;99700.50;5032155;28;20033;-37
2021/04/17 10:50:32;;;;;;;;;;;;;;;9.76;74.34;99703.72;5032748;28;20025;-38
2021/04/17 10:53:02;;;;;;;20.35;13.88;;;;;;;10.05;73.63;99699.09;5032700;28;19968;-38
2021/04/17 10:55:31;;;;;;;18.60;12.52;;;;;;;9.94;74.39;99692.53;5033219;28;20116;-38
2021/04/17 10:57:57;;;;;;;19.88;12.45;;;;;;;9.94;72.93;99681.91;5032758;28;20506;-38
2021/04/17 11:00:30;;;;;;;18.63;13.43;;;;;;;10.20;73.23;99690.94;5033001;28;20111;-37
2021/04/17 11:02:56;;;;;;;16.48;12.80;;;;;;;9.89;74.17;99685.16;5032571;28;20053;-38
2021/04/17 11:05:21;;;;;;;16.58;12.18;;;;;;;10.09;73.22;99689.69;5032385;28;20587;-39
2021/04/17 11:07:47;;;;;;;16.63;11.80;;;;;;;10.32;72.16;99681.41;5031404;28;20024;-38
2021/04/17 11:10:12;;;;;;;34.90;22.83;;;;;;;10.39;73.01;99679.53;5032504;28;20496;-37
2021/04/17 11:12:38;;;;;;;20.33;14.18;;;;;;;10.15;73.10;99670.28;5032573;28;20452;-39
2021/04/17 11:15:18;;;;;;;18.73;13.00;;;;;;;10.32;73.13;99668.09;5032623;28;20403;-39
2021/04/17 11:17:44;;;;;;;18.58;13.25;;;;;;;10.43;72.72;99662.13;5032167;28;20033;-39
2021/04/17 11:20:15;;;;;;;19.98;12.65;;;;;;;10.53;72.83;99659.09;5031597;28;20073;-38
2021/04/17 11:22:40;;;;;;;18.75;12.10;;;;;;;10.61;71.97;99664.19;5050622;28;20032;-38
2021/04/17 11:25:06;;;;;;;14.88;11.18;;;;;;;10.74;71.34;99644.75;5052225;28;20024;-38
2021/04/17 11:27:32;;;;;;;16.52;11.85;;;;;;;10.66;71.72;99650.25;5051830;28;20029;-38
2021/04/17 11:29:58;;;;;;;19.55;11.55;;;;;;;10.81;71.08;99653.53;5051841;28;20497;-37
2021/04/17 11:32:25;;;;;;;17.08;11.25;;;;;;;10.73;70.91;99646.56;5052149;28;20025;-38
2021/04/17 11:34:51;;;;;;;16.38;10.68;;;;;;;10.57;71.28;99655.00;5051877;28;20116;-38
2021/04/17 11:37:17;;;;;;;17.48;10.63;;;;;;;10.52;71.44;99654.78;5051701;28;20033;-38
2021/04/17 11:39:42;;;;;;;15.48;10.48;;;;;;;10.52;70.60;99647.63;5051563;28;20025;-38